Church Hill, Texas
Current Conditions -  °F | °C
As of 4:55 PM on Thursday 23 Oct 2014 (Local Time) from KRFI Reporting Station
Clear Clear  
Wind Chill: 73°   Ceiling: Unl
Heat Index: 73°   Visibility: 10mi
Dew Point: 52°   Wind: 5mph
Humidity: 47%   Direction: 50°NE
Pressure: 30.11"   Gusts: NA
Location:  32.1449°N, 94.7416°W
Report Text: KRFI 232155Z AUTO 05004KT 10SM CLR 23/11 A3011 RMK AO2 T02260109
Loading
Personal Weather Stations






























Interactive Weather Map
Tropical Storm Tracking
New forecast layout! Learn more

10-Day Weather Forecast

Advertisements
Track Severe Weather on mobile